Latest Weather Observations for Mandurah

IDW60901

Issued at 3:31 pm WST Tuesday 16 August 2022 (issued every 10 minutes, with the page automatically refreshed every 10 minutes)

About weather observations | Map of Perth area stations | Latest observations for Perth area | Other Formats
Station Details ID: 009977 Name: MANDURAH Lat: -32.52 Lon: 115.71 Height: 3.0 m
Data from the previous 72 hours. | See also: Recent months at Mandurah
Date/Time
WST
Temp
°C
App
Temp
°C
Dew
Point
°C
Rel
Hum
%
Delta-T
°C
Wind Press
QNH
hPa
Press
MSL
hPa
Rain since
9am
mm
Dir  Spd
km/h
Gust
km/h
Spd
kts
Gust
kts
16/03:30pm 17.2 11.2 10.1 63 3.8 WNW 32 44 17 24 1005.7 1005.7 0.0
16/03:00pm 16.9 12.0 11.2 69 3.1 W 28 39 15 21 1005.6 1005.6 0.0
16/02:30pm 17.2 13.7 12.1 72 2.8 WNW 22 33 12 18 1005.4 1005.4 0.0
16/02:00pm 16.8 12.3 11.5 71 2.9 W 26 37 14 20 1005.4 1005.4 0.0
16/01:30pm 17.4 12.1 11.2 67 3.4 W 30 43 16 23 1005.3 1005.3 0.0
16/01:00pm 17.6 12.5 11.9 69 3.1 W 30 43 16 23 1005.2 1005.2 0.0
16/12:30pm 17.8 13.2 12.3 70 3.0 W 28 46 15 25 1005.1 1005.1 0.0
16/12:27pm 17.6 12.9 12.1 70 3.0 W 28 46 15 25 1005.1 1005.1 0.0
16/12:00pm 16.8 12.0 11.7 72 2.8 W 28 41 15 22 1005.0 1005.0 0.0
16/11:30am 16.9 11.8 11.8 72 2.8 WNW 30 44 16 24 1005.0 1005.0 0.0
16/11:00am 16.4 12.4 13.1 81 1.8 WNW 26 35 14 19 1005.5 1005.5 0.0
16/10:30am 16.1 11.6 12.7 80 1.9 W 28 41 15 22 1005.5 1005.5 0.0
16/10:22am 16.4 11.9 12.6 78 2.1 W 28 46 15 25 1005.6 1005.6 0.0
16/10:00am 16.3 13.4 13.0 81 1.8 W 20 33 11 18 1005.3 1005.3 0.0
16/09:30am 16.0 13.2 13.1 83 1.6 W 20 26 11 14 1005.3 1005.3 0.0
16/09:00am 15.5 12.2 13.9 90 0.9 W 24 43 13 23 1005.0 1005.0 14.8
16/08:30am 16.1 12.4 13.8 86 1.3 W 26 37 14 20 1004.6 1004.6 13.8
16/08:00am 16.5 12.2 13.2 81 1.9 WNW 28 37 15 20 1003.9 1003.9 13.6
16/07:30am 17.1 14.3 14.2 83 1.7 W 22 33 12 18 1003.3 1003.3 13.6
16/07:00am 17.2 14.7 14.1 82 1.8 W 20 32 11 17 1003.1 1003.1 13.6
16/06:30am 17.4 13.6 13.7 79 2.1 W 26 35 14 19 1002.9 1002.9 13.6
16/06:00am 17.5 14.4 14.4 82 1.8 WNW 24 32 13 17 1002.5 1002.5 13.6
16/05:30am 17.3 15.0 14.6 84 1.6 W 20 30 11 16 1002.2 1002.2 13.6
16/05:00am 17.2 15.1 14.7 85 1.4 W 19 33 10 18 1002.4 1002.4 13.6
16/04:30am 17.5 15.1 15.5 88 1.2 W 22 32 12 17 1002.0 1002.0 13.6
16/04:00am 18.0 15.1 16.0 88 1.2 WNW 26 35 14 19 1002.2 1002.2 13.6
16/03:30am 17.7 14.7 15.9 89 1.1 W 26 37 14 20 1001.6 1001.6 13.6
16/03:00am 17.7 14.5 16.4 92 0.8 WNW 28 39 15 21 1001.7 1001.7 13.6
16/02:30am 18.0 14.4 17.2 95 0.5 WNW 32 43 17 23 1001.4 1001.4 13.6
16/02:10am 18.8 15.5 18.3 97 0.3 NW 33 54 18 29 1001.5 1001.5 13.6
16/02:00am 18.5 16.5 18.2 98 0.2 NNW 26 39 14 21 1001.4 1001.4 13.6
16/01:30am 18.2 14.0 18.0 99 0.1 N 37 50 20 27 1001.3 1001.3 13.6
16/01:17am 17.6 14.8 17.4 99 0.1 N 28 46 15 25 1001.0 1001.0 13.6
16/01:00am 17.6 13.8 17.3 98 0.2 N 33 39 18 21 1001.2 1001.2 10.2
16/12:30am 17.8 12.1 17.3 97 0.3 N 43 56 23 30 1000.8 1000.8 9.6
16/12:00am 17.7 14.1 17.1 96 0.4 N 32 39 17 21 1001.6 1001.6 9.0
 
Date/Time
WST
Temp
°C
App
Temp
°C
Dew
Point
°C
Rel
Hum
%
Delta-T
°C
Wind Press
QNH
hPa
Press
MSL
hPa
Rain since
9am
mm
Dir  Spd
km/h
Gust
km/h
Spd
kts
Gust
kts
15/11:30pm 17.4 14.3 16.6 95 0.5 N 28 35 15 19 1001.6 1001.6 8.4
15/11:00pm 17.1 13.5 16.3 95 0.5 NNE 30 35 16 19 1002.0 1002.0 8.4
15/10:30pm 16.7 14.1 15.9 95 0.5 NNE 24 30 13 16 1003.1 1003.1 8.4
15/10:00pm 16.4 15.0 15.6 95 0.5 NNE 17 24 9 13 1004.1 1004.1 8.4
15/09:30pm 16.2 14.2 15.6 96 0.3 NE 20 26 11 14 1004.1 1004.1 8.4
15/09:00pm 16.1 14.3 15.5 96 0.4 NE 19 22 10 12 1004.8 1004.8 8.4
15/08:30pm 16.2 15.5 15.4 95 0.5 NE 13 15 7 8 1005.6 1005.6 8.2
15/08:00pm 16.3 15.9 15.3 94 0.6 NNE 11 15 6 8 1006.1 1006.1 7.6
15/07:30pm 16.5 16.5 15.2 92 0.8 NNE 9 13 5 7 1006.4 1006.4 4.0
15/07:00pm 16.9 17.2 15.1 89 1.0 NNE 7 11 4 6 1006.4 1006.4 1.8
15/06:30pm 17.3 17.5 14.8 85 1.4 NNE 7 9 4 5 1006.6 1006.6 0.8
15/06:00pm 17.7 18.0 14.4 81 1.9 NNE 6 9 3 5 1005.9 1005.9 0.2
15/05:30pm 17.7 18.1 14.8 83 1.7 NNE 6 7 3 4 1006.4 1006.4 0.0
15/05:00pm 17.8 18.1 15.1 84 1.6 NNE 7 9 4 5 1006.5 1006.5 0.0
15/04:30pm 17.7 17.5 14.8 83 1.7 NNE 9 13 5 7 1007.0 1007.0 0.0
15/04:00pm 18.1 17.7 15.2 83 1.7 N 11 13 6 7 1007.4 1007.4 0.0
15/03:30pm 18.4 17.5 14.9 80 2.0 N 13 15 7 8 1008.0 1008.0 0.0
15/03:00pm 18.9 18.1 15.0 78 2.3 N 13 17 7 9 1008.5 1008.5 0.0
15/02:30pm 19.0 16.3 14.5 75 2.6 N 22 26 12 14 1009.3 1009.3 0.0
15/02:00pm 18.6 16.3 14.1 75 2.6 N 19 26 10 14 1009.0 1009.0 0.0
15/01:30pm 18.9 16.4 14.2 74 2.7 N 20 24 11 13 1009.3 1009.3 0.0
15/01:00pm 18.9 14.2 13.1 69 3.3 N 30 37 16 20 1010.0 1010.0 0.0
15/12:30pm 18.5 15.4 13.4 72 2.9 NNW 22 28 12 15 1010.2 1010.2 0.0
15/12:00pm 18.8 17.1 13.6 72 3.0 NW 15 19 8 10 1010.6 1010.6 0.0
15/11:30am 19.5 16.5 12.5 64 3.9 N 20 26 11 14 1010.6 1010.6 0.0
15/11:00am 19.1 16.5 11.9 63 4.0 N 17 19 9 10 1011.1 1011.1 0.0
15/10:30am 18.1 14.3 11.0 63 3.8 NNE 22 30 12 16 1011.7 1011.7 0.0
15/10:00am 17.3 12.9 10.4 64 3.7 NNE 24 30 13 16 1012.0 1012.0 0.0
15/09:30am 16.4 12.7 10.0 66 3.4 NNE 20 28 11 15 1012.5 1012.5 0.0
15/09:00am 15.6 12.0 9.9 69 3.0 NNE 19 26 10 14 1013.2 1013.2 0.0
15/08:30am 14.5 10.8 9.3 71 2.7 NNE 19 24 10 13 1013.7 1013.7 0.0
15/08:00am 14.0 10.0 9.0 72 2.5 NNE 20 26 11 14 1013.7 1013.7 0.0
15/07:30am 13.7 10.2 8.7 72 2.5 NE 17 20 9 11 1013.9 1013.9 0.0
15/07:00am 13.7 10.5 8.5 71 2.6 NE 15 20 8 11 1013.8 1013.8 0.0
15/06:30am 13.8 10.3 8.6 71 2.6 NE 17 22 9 12 1013.9 1013.9 0.0
15/06:00am 13.8 10.2 8.4 70 2.7 NE 17 22 9 12 1013.9 1013.9 0.0
15/05:30am 13.6 10.8 8.7 72 2.5 ENE 13 19 7 10 1014.2 1014.2 0.0
15/05:00am 13.6 11.3 8.9 73 2.4 NE 11 17 6 9 1014.4 1014.4 0.0
15/04:30am 13.6 10.9 8.9 73 2.4 NE 13 17 7 9 1014.4 1014.4 0.0
15/04:00am 13.3 10.5 8.6 73 2.3 NE 13 19 7 10 1014.6 1014.6 0.0
15/03:30am 13.1 10.0 8.8 75 2.2 ENE 15 22 8 12 1014.8 1014.8 0.0
15/03:00am 12.7 9.9 8.4 75 2.1 ENE 13 19 7 10 1014.9 1014.9 0.0
15/02:30am 12.9 9.8 8.8 76 2.1 ENE 15 20 8 11 1015.6 1015.6 0.0
15/02:00am 13.1 10.4 8.8 75 2.2 ENE 13 20 7 11 1016.0 1016.0 0.0
15/01:30am 13.7 10.6 9.0 73 2.4 ENE 15 20 8 11 1016.4 1016.4 0.0
15/01:00am 14.1 11.1 9.3 73 2.4 NE 15 22 8 12 1016.5 1016.5 0.0
15/12:30am 14.2 11.2 9.4 73 2.5 NE 15 20 8 11 1016.9 1016.9 0.0
15/12:00am 14.5 10.9 9.7 73 2.5 NE 19 22 10 12 1017.0 1017.0 0.0
 
Date/Time
WST
Temp
°C
App
Temp
°C
Dew
Point
°C
Rel
Hum
%
Delta-T
°C
Wind Press
QNH
hPa
Press
MSL
hPa
Rain since
9am
mm
Dir  Spd
km/h
Gust
km/h
Spd
kts
Gust
kts
14/11:30pm 14.6 11.4 10.0 74 2.4 NE 17 22 9 12 1017.2 1017.2 0.0
14/11:00pm 14.6 12.2 10.2 75 2.3 NE 13 20 7 11 1017.5 1017.5 0.0
14/10:30pm 14.6 12.2 10.2 75 2.3 NE 13 19 7 10 1017.6 1017.6 0.0
14/10:00pm 14.6 12.6 10.2 75 2.3 ENE 11 19 6 10 1017.8 1017.8 0.0
14/09:30pm 14.8 13.6 10.4 75 2.3 NE 7 11 4 6 1017.8 1017.8 0.0
14/09:00pm 14.8 14.1 10.2 74 2.4 NE 4 7 2 4 1017.9 1017.9 0.0
14/08:30pm 15.0 14.3 10.2 73 2.5 NE 4 7 2 4 1017.7 1017.7 0.0
14/08:00pm 15.4 14.8 10.4 72 2.6 NE 4 7 2 4 1017.8 1017.8 0.0
14/07:30pm 15.7 15.7 11.1 74 2.5 N 2 6 1 3 1017.7 1017.7 0.0
14/07:00pm 16.3 16.1 11.7 74 2.5 N 4 4 2 2 1017.6 1017.6 0.0
14/06:30pm 16.6 16.8 11.7 73 2.7 N 2 6 1 3 1017.6 1017.6 0.0
14/06:00pm 16.5 16.4 10.8 69 3.0 N 2 6 1 3 1017.7 1017.7 0.0
14/05:30pm 16.7 16.8 10.3 66 3.4 CALM 0 4 0 2 1017.6 1017.6 0.0
14/05:00pm 16.9 16.1 11.0 68 3.2 N 6 7 3 4 1017.4 1017.4 0.0
14/04:30pm 16.9 16.3 10.3 65 3.5 N 4 6 2 3 1017.5 1017.5 0.0
14/04:00pm 16.9 16.1 9.6 62 3.8 N 4 6 2 3 1017.3 1017.3 0.0
14/03:30pm 17.4 16.0 8.8 57 4.4 N 6 7 3 4 1017.5 1017.5 0.0
14/03:00pm 17.9 17.0 10.5 62 4.0 N 6 9 3 5 1017.7 1017.7 0.0
14/02:30pm 18.0 16.8 9.4 57 4.5 N 6 6 3 3 1017.6 1017.6 0.0
14/02:00pm 18.3 17.4 9.1 55 4.8 NNE 4 4 2 2 1017.7 1017.7 0.0
14/01:30pm 18.3 17.6 10.2 59 4.3 NNE 4 6 2 3 1017.6 1017.6 0.0
14/01:00pm 19.2 19.0 10.5 57 4.7 NNE 2 4 1 2 1018.2 1018.2 0.0
14/12:30pm 18.6 17.5 9.9 57 4.6 NNE 6 7 3 4 1018.3 1018.3 0.0
14/12:00pm 17.8 16.6 10.2 61 4.0 NNE 7 11 4 6 1018.6 1018.6 0.0
14/11:30am 17.4 15.6 9.6 60 4.1 NNE 9 13 5 7 1018.6 1018.6 0.0
14/11:00am 16.9 15.3 10.3 65 3.5 NNE 9 15 5 8 1018.6 1018.6 0.0
14/10:30am 16.6 14.8 10.7 68 3.1 NNE 11 15 6 8 1018.7 1018.7 0.0
14/10:00am 15.5 13.0 9.8 69 3.0 S 13 17 7 9 1018.8 1018.8 0.0
14/09:30am 15.0 13.9 10.6 75 2.3 SSW 7 11 4 6 1018.7 1018.7 0.0
14/09:00am 12.9 11.6 9.9 82 1.5 SSW 7 11 4 6 1018.8 1018.8 4.6
14/08:30am 11.7 10.3 9.4 86 1.2 SW 7 9 4 5 1018.8 1018.8 4.6
14/08:00am 11.1 9.9 9.5 90 0.8 SW 6 7 3 4 1018.4 1018.4 4.6
14/07:30am 10.3 9.3 8.7 90 0.8 SW 4 7 2 4 1017.8 1017.8 4.6
14/07:00am 10.4 9.4 8.8 90 0.8 SW 4 4 2 2 1017.3 1017.3 4.6
14/06:30am 10.6 9.6 9.0 90 0.8 SW 4 7 2 4 1016.8 1016.8 4.6
14/06:00am 10.7 9.7 9.0 89 0.8 SW 4 6 2 3 1016.4 1016.4 4.6
14/05:30am 10.8 10.6 8.9 88 0.9 CALM 0 0 0 0 1015.8 1015.8 4.6
14/05:00am 11.0 10.4 9.1 88 0.9 SW 2 6 1 3 1015.2 1015.2 4.6
14/04:30am 11.4 10.5 9.3 87 1.1 SW 4 6 2 3 1014.6 1014.6 4.6
14/04:00am 12.1 10.7 8.9 81 1.6 SW 6 7 3 4 1014.7 1014.7 4.6
14/03:30am 13.1 11.9 8.0 71 2.5 SW 4 7 2 4 1014.7 1014.7 4.6
14/03:00am 13.4 10.8 7.8 69 2.8 WSW 11 17 6 9 1014.8 1014.8 4.6
14/02:30am 12.4 11.0 8.9 79 1.8 SSW 6 7 3 4 1014.5 1014.5 4.6
14/02:00am 13.2 12.0 9.5 78 1.9 SSW 6 9 3 5 1014.0 1014.0 4.6
14/01:30am 12.6 11.5 9.8 83 1.4 SSW 6 7 3 4 1014.0 1014.0 4.6
14/01:00am 13.4 12.3 10.6 83 1.5 SW 7 13 4 7 1014.0 1014.0 4.6
14/12:30am 13.4 12.4 10.4 82 1.6 WSW 6 13 3 7 1014.0 1014.0 4.4
14/12:00am 13.3 11.4 10.5 83 1.5 SW 11 26 6 14 1014.2 1014.2 4.4
 
Date/Time
WST
Temp
°C
App
Temp
°C
Dew
Point
°C
Rel
Hum
%
Delta-T
°C
Wind Press
QNH
hPa
Press
MSL
hPa
Rain since
9am
mm
Dir  Spd
km/h
Gust
km/h
Spd
kts
Gust
kts
13/11:30pm 13.1 12.2 10.5 84 1.4 WSW 6 13 3 7 1014.0 1014.0 4.4
13/11:00pm 13.4 12.3 10.0 80 1.8 SSW 6 9 3 5 1013.7 1013.7 3.8
13/10:30pm 14.2 11.2 10.6 79 1.9 SW 17 26 9 14 1013.3 1013.3 3.8
13/10:00pm 14.7 12.1 9.5 71 2.7 SW 13 24 7 13 1012.6 1012.6 3.8
13/09:30pm 15.0 11.3 10.2 73 2.5 WSW 20 33 11 18 1012.0 1012.0 3.8
13/09:00pm 15.0 11.0 10.6 75 2.3 WSW 22 33 12 18 1011.3 1011.3 3.8
13/08:30pm 14.7 11.4 11.5 81 1.7 WSW 20 35 11 19 1010.6 1010.6 3.8
13/08:00pm 14.4 12.5 11.9 85 1.3 WSW 13 24 7 13 1009.8 1009.8 3.6
13/07:30pm 15.4 11.8 11.8 79 1.9 W 22 35 12 19 1009.2 1009.2 3.2
13/07:00pm 15.6 9.8 11.6 77 2.2 WNW 33 57 18 31 1008.6 1008.6 3.2
13/06:58pm 16.5 10.9 11.6 73 2.7 WNW 32 57 17 31 1008.4 1008.4 3.0
13/06:30pm 16.4 9.9 11.8 74 2.5 WNW 37 46 20 25 1007.6 1007.6 3.0
13/06:00pm 15.9 11.1 11.7 76 2.3 NW 28 39 15 21 1007.3 1007.3 3.0
13/05:30pm 14.0 8.2 10.8 81 1.7 W 32 46 17 25 1007.1 1007.1 3.0
13/05:00pm 15.8 7.8 11.0 73 2.6 WNW 44 67 24 36 1006.6 1006.6 2.6
13/04:58pm 17.0 9.4 11.7 71 2.9 NW 43 67 23 36 1006.5 1006.5 2.6
13/04:30pm 17.3 9.8 12.2 72 2.8 NW 43 56 23 30 1005.9 1005.9 2.6
13/04:00pm 17.2 9.2 11.0 67 3.3 NW 44 59 24 32 1005.7 1005.7 2.6

Latest Capital City Observations: Canberra | Sydney | Melbourne | Brisbane | Adelaide | Perth | Hobart | Darwin

Other formats

Comma delimited format used in spreadsheet applications
http://www.bom.gov.au/fwo/IDW60901/IDW60901.94605.axf

JavaScript Object Notation format (JSON) in row-major order
http://www.bom.gov.au/fwo/IDW60901/IDW60901.94605.json

Data quality

Most of these data are generated automatically and are frequently updated. Quality checks on data are not normally performed. It is possible for incorrect values to appear. Refer to information at About Latest Weather Observations and please check the disclaimer before using these data.